createdAt,value
2022-09-09T00:02:21.813Z,17.07
2022-09-09T00:07:49.667Z,13.57
2022-09-09T00:10:32.565Z,13.60
2022-09-09T00:13:07.340Z,15.17
2022-09-09T00:15:41.799Z,13.00
2022-09-09T00:18:29.177Z,13.80
2022-09-09T00:21:16.609Z,13.10
2022-09-09T00:23:55.911Z,13.30
2022-09-09T00:26:33.045Z,12.60
2022-09-09T00:29:13.126Z,13.23
2022-09-09T00:31:44.551Z,13.27
2022-09-09T00:34:20.785Z,11.80
2022-09-09T00:36:54.044Z,12.93
2022-09-09T00:39:34.156Z,12.10
2022-09-09T00:42:34.214Z,12.27
2022-09-09T00:45:35.828Z,12.97
2022-09-09T00:48:14.374Z,12.37
2022-09-09T00:50:56.710Z,12.23
2022-09-09T00:53:59.075Z,11.53
2022-09-09T00:57:03.965Z,13.17
2022-09-09T00:59:51.900Z,11.43
2022-09-09T01:02:47.190Z,13.87
2022-09-09T01:05:31.224Z,13.87
2022-09-09T01:08:06.722Z,12.70
2022-09-09T01:10:55.286Z,12.35
2022-09-09T01:13:34.671Z,12.57
2022-09-09T01:16:12.484Z,13.20
2022-09-09T01:18:50.616Z,13.93
2022-09-09T01:21:31.204Z,12.83
2022-09-09T01:24:09.349Z,12.27
2022-09-09T01:26:43.649Z,13.00
2022-09-09T01:29:18.239Z,14.17
2022-09-09T01:31:54.067Z,12.63
2022-09-09T01:34:32.805Z,13.27
2022-09-09T01:37:08.211Z,13.73
2022-09-09T01:39:43.869Z,14.60
2022-09-09T01:42:17.123Z,13.35
2022-09-09T01:44:48.495Z,14.23
2022-09-09T01:47:19.925Z,14.20
2022-09-09T01:49:51.403Z,14.80
2022-09-09T01:52:23.137Z,15.50
2022-09-09T01:54:54.707Z,14.70
2022-09-09T01:57:31.232Z,15.97
2022-09-09T02:00:12.796Z,13.80
2022-09-09T02:02:57.025Z,14.77
2022-09-09T02:05:45.413Z,14.30
2022-09-09T02:08:31.248Z,15.93
2022-09-09T02:11:09.311Z,15.30
2022-09-09T02:13:42.173Z,14.17
2022-09-09T02:16:40.136Z,14.37
2022-09-09T02:19:26.338Z,15.47
2022-09-09T02:22:00.777Z,13.25
2022-09-09T02:24:35.956Z,13.77
2022-09-09T02:27:09.832Z,14.25
2022-09-09T02:29:43.958Z,14.33
2022-09-09T02:32:18.811Z,14.73
2022-09-09T02:34:57.012Z,12.00
2022-09-09T02:37:36.262Z,12.63
2022-09-09T02:40:11.347Z,11.77
2022-09-09T02:42:46.267Z,11.73
2022-09-09T02:45:20.336Z,13.40
2022-09-09T02:48:07.135Z,12.07
2022-09-09T02:50:51.046Z,13.73
2022-09-09T02:53:31.804Z,13.97
2022-09-09T02:56:14.896Z,12.23
2022-09-09T02:58:47.150Z,13.20
2022-09-09T03:01:18.793Z,13.53
2022-09-09T03:03:50.292Z,13.53
2022-09-09T03:06:22.717Z,11.90
2022-09-09T03:08:55.285Z,13.30
2022-09-09T03:11:28.777Z,12.23
2022-09-09T03:14:00.200Z,13.60
2022-09-09T03:16:31.591Z,11.90
2022-09-09T03:19:03.044Z,12.33
2022-09-09T03:21:34.527Z,11.50
2022-09-09T03:24:07.521Z,12.20
2022-09-09T03:26:39.189Z,10.97
2022-09-09T03:29:10.670Z,12.10
2022-09-09T03:31:42.107Z,10.80
2022-09-09T03:34:14.622Z,11.53
2022-09-09T03:36:59.422Z,10.70
2022-09-09T03:39:31.081Z,10.40
2022-09-09T03:42:05.100Z,11.20
2022-09-09T03:44:36.523Z,9.47
2022-09-09T03:47:08.000Z,9.43
2022-09-09T03:49:39.308Z,9.83
2022-09-09T03:52:11.198Z,9.70
2022-09-09T03:54:43.373Z,9.33
2022-09-09T03:57:17.655Z,10.77
2022-09-09T03:59:49.025Z,9.90
2022-09-09T04:02:20.411Z,9.77
2022-09-09T04:04:51.847Z,8.83
2022-09-09T04:07:23.248Z,9.43
2022-09-09T04:09:55.580Z,7.57
2022-09-09T04:12:26.974Z,8.20
2022-09-09T04:14:58.409Z,8.10
2022-09-09T04:17:29.946Z,8.77
2022-09-09T04:20:02.400Z,6.83
2022-09-09T04:22:34.067Z,7.27
2022-09-09T04:25:06.972Z,8.07
2022-09-09T04:27:38.341Z,8.07
2022-09-09T04:30:11.117Z,7.77
2022-09-09T04:32:42.600Z,7.57
2022-09-09T04:35:14.303Z,8.33
2022-09-09T04:37:45.899Z,8.13
2022-09-09T04:40:17.456Z,7.47
2022-09-09T04:42:49.388Z,7.20
2022-09-09T04:45:20.877Z,6.87
2022-09-09T04:47:52.334Z,7.37
2022-09-09T04:50:23.847Z,6.83
2022-09-09T04:52:55.387Z,7.47
2022-09-09T04:55:26.710Z,7.17
2022-09-09T04:57:58.625Z,6.40
2022-09-09T05:00:30.003Z,7.40
2022-09-09T05:03:05.099Z,6.70
2022-09-09T05:05:36.819Z,6.63
2022-09-09T05:08:09.941Z,6.60
2022-09-09T05:10:42.801Z,6.60
2022-09-09T05:13:14.202Z,6.57
2022-09-09T05:15:53.920Z,5.97
2022-09-09T05:18:25.494Z,5.73
2022-09-09T05:21:01.262Z,6.60
2022-09-09T05:23:34.771Z,6.45
2022-09-09T05:26:07.217Z,6.83
2022-09-09T05:28:38.665Z,5.60
2022-09-09T05:31:13.762Z,7.03
2022-09-09T05:33:47.367Z,6.13
2022-09-09T05:36:21.359Z,6.87
2022-09-09T05:38:54.704Z,6.80
2022-09-09T05:41:26.501Z,5.40
2022-09-09T05:43:59.696Z,5.80
2022-09-09T05:46:31.349Z,6.00
2022-09-09T05:49:04.996Z,5.73
2022-09-09T05:51:36.426Z,5.47
2022-09-09T05:54:07.722Z,5.67
2022-09-09T05:56:39.072Z,5.10
2022-09-09T05:59:10.570Z,5.30
2022-09-09T06:01:42.057Z,5.23
2022-09-09T06:04:13.642Z,5.40
2022-09-09T06:06:45.082Z,4.93
2022-09-09T06:09:16.356Z,4.97
2022-09-09T06:11:47.682Z,4.63
2022-09-09T06:14:19.063Z,4.87
2022-09-09T06:16:50.493Z,4.63
2022-09-09T06:19:21.824Z,5.03
2022-09-09T06:21:53.251Z,5.17
2022-09-09T06:24:24.679Z,4.30
2022-09-09T06:26:56.826Z,4.83
2022-09-09T06:29:28.206Z,4.27
2022-09-09T06:31:59.929Z,4.23
2022-09-09T06:34:31.490Z,4.77
2022-09-09T06:37:02.982Z,4.40
2022-09-09T06:39:34.377Z,4.70
2022-09-09T06:42:05.948Z,4.30
2022-09-09T06:44:37.446Z,4.27
2022-09-09T06:47:08.932Z,4.40
2022-09-09T06:49:40.270Z,3.80
2022-09-09T06:52:11.668Z,3.83
2022-09-09T06:54:42.945Z,4.27
2022-09-09T06:57:36.361Z,4.17
2022-09-09T07:00:06.289Z,3.83
2022-09-09T07:02:40.089Z,3.50
2022-09-09T07:05:11.640Z,3.57
2022-09-09T07:07:44.112Z,3.60
2022-09-09T07:10:15.569Z,3.10
2022-09-09T07:12:52.662Z,4.27
2022-09-09T07:15:24.207Z,3.57
2022-09-09T07:17:55.605Z,3.50
2022-09-09T07:20:26.959Z,3.07
2022-09-09T07:22:59.408Z,3.67
2022-09-09T07:25:31.315Z,3.23
2022-09-09T07:28:02.930Z,3.40
2022-09-09T07:30:34.297Z,3.42
2022-09-09T07:33:05.850Z,3.10
2022-09-09T07:35:37.940Z,3.53
2022-09-09T07:38:10.420Z,3.20
2022-09-09T07:40:42.070Z,4.18
2022-09-09T07:43:17.250Z,3.00
2022-09-09T07:45:50.903Z,3.35
2022-09-09T07:48:22.330Z,3.20
2022-09-09T07:50:53.619Z,2.97
2022-09-09T07:53:24.991Z,3.05
2022-09-09T07:55:56.610Z,2.70
2022-09-09T07:58:27.952Z,3.08
2022-09-09T08:00:59.509Z,2.67
2022-09-09T08:03:30.807Z,2.60
2022-09-09T08:06:08.587Z,2.60
2022-09-09T08:08:42.084Z,2.28
2022-09-09T08:11:18.381Z,2.13
2022-09-09T08:13:54.332Z,2.70
2022-09-09T08:16:29.429Z,2.30
2022-09-09T08:19:00.879Z,2.10
2022-09-09T08:21:34.082Z,2.08
2022-09-09T08:24:08.882Z,1.92
2022-09-09T08:26:42.599Z,2.30
2022-09-09T08:29:14.753Z,2.03
2022-09-09T08:31:48.721Z,1.80
2022-09-09T08:34:20.917Z,2.70
2022-09-09T08:36:52.793Z,1.90
2022-09-09T08:39:24.293Z,1.83
2022-09-09T08:42:22.682Z,2.00
2022-09-09T08:44:59.691Z,1.90
2022-09-09T08:47:56.005Z,1.70
2022-09-09T08:50:30.829Z,2.00
2022-09-09T08:53:15.569Z,1.83
2022-09-09T08:55:50.698Z,2.13
2022-09-09T08:58:30.356Z,1.77
2022-09-09T09:01:09.687Z,1.83
2022-09-09T09:03:58.126Z,1.77
2022-09-09T09:06:34.420Z,2.22
2022-09-09T09:09:31.332Z,1.73
2022-09-09T09:12:10.478Z,2.20
2022-09-09T09:14:45.098Z,1.75
2022-09-09T09:17:23.000Z,1.63
2022-09-09T09:19:55.209Z,2.10
2022-09-09T09:22:52.081Z,1.80
2022-09-09T09:25:32.511Z,2.17
2022-09-09T09:28:20.179Z,1.17
2022-09-09T09:31:06.731Z,1.60
2022-09-09T09:33:50.615Z,2.50
2022-09-09T09:36:33.830Z,1.30
2022-09-09T09:42:05.132Z,1.48
2022-09-09T09:44:38.261Z,1.27
2022-09-09T09:47:14.313Z,1.35
2022-09-09T09:50:00.267Z,1.55
2022-09-09T09:52:33.191Z,1.80
2022-09-09T09:55:08.416Z,1.00
2022-09-09T09:57:40.094Z,1.40
2022-09-09T10:00:21.413Z,1.55
2022-09-09T10:02:53.652Z,1.42
2022-09-09T10:05:30.589Z,1.45
2022-09-09T10:08:13.120Z,1.90
2022-09-09T10:11:17.944Z,1.15
2022-09-09T10:13:59.309Z,1.17
2022-09-09T10:17:07.141Z,1.40
2022-09-09T10:19:41.927Z,1.30
2022-09-09T10:22:28.449Z,1.23
2022-09-09T10:25:17.616Z,1.60
2022-09-09T10:28:09.966Z,1.15
2022-09-09T10:31:17.321Z,1.40
2022-09-09T10:33:54.806Z,0.98
2022-09-09T10:36:30.658Z,0.80
2022-09-09T10:39:15.925Z,1.05
2022-09-09T10:42:06.734Z,1.20
2022-09-09T10:45:00.657Z,1.17
2022-09-09T10:47:40.753Z,1.38
2022-09-09T10:51:11.453Z,1.00
2022-09-09T10:54:05.958Z,1.05
2022-09-09T10:56:39.660Z,0.90
2022-09-09T10:59:18.380Z,1.00
2022-09-09T11:02:03.385Z,1.02
2022-09-09T11:04:43.930Z,1.27
2022-09-09T11:07:29.487Z,0.90
2022-09-09T11:10:07.310Z,0.80
2022-09-09T11:12:41.910Z,1.17
2022-09-09T11:15:23.804Z,1.67
2022-09-09T11:17:59.613Z,1.13
2022-09-09T11:20:33.062Z,0.93
2022-09-09T11:23:13.400Z,1.45
2022-09-09T11:26:01.059Z,0.90
2022-09-09T11:28:45.540Z,0.65
2022-09-09T11:31:46.224Z,0.90
2022-09-09T11:34:32.356Z,1.30
2022-09-09T11:37:18.253Z,1.13
2022-09-09T11:40:09.428Z,0.80
2022-09-09T11:42:41.044Z,0.90
2022-09-09T11:45:26.737Z,1.30
2022-09-09T11:48:00.509Z,1.15
2022-09-09T11:50:38.560Z,0.88
2022-09-09T11:53:23.446Z,1.02
2022-09-09T11:56:05.969Z,1.20
2022-09-09T11:58:57.649Z,0.95
2022-09-09T12:01:34.939Z,1.17
2022-09-09T12:04:12.173Z,1.48
2022-09-09T12:06:47.129Z,1.10
2022-09-09T12:09:43.442Z,1.05
2022-09-09T12:12:14.821Z,0.98
2022-09-09T12:15:20.856Z,1.15
2022-09-09T12:17:55.905Z,1.00
2022-09-09T12:20:32.389Z,1.30
2022-09-09T12:23:22.179Z,1.10
2022-09-09T12:26:09.827Z,1.48
2022-09-09T12:28:51.741Z,1.40
2022-09-09T12:31:47.549Z,1.70
2022-09-09T12:34:46.476Z,1.63
2022-09-09T12:37:28.226Z,1.88
2022-09-09T12:40:03.107Z,1.60
2022-09-09T12:42:41.499Z,2.08
2022-09-09T12:45:33.795Z,1.85
2022-09-09T12:48:09.405Z,2.10
2022-09-09T12:53:27.215Z,2.08
2022-09-09T12:56:11.013Z,1.50
2022-09-09T12:58:47.850Z,1.65
2022-09-09T13:01:25.322Z,1.92
2022-09-09T13:03:57.718Z,1.75
2022-09-09T13:06:31.602Z,1.90
2022-09-09T13:09:03.876Z,1.73
2022-09-09T13:11:40.918Z,1.70
2022-09-09T13:14:35.638Z,1.60
2022-09-09T13:17:18.108Z,1.50
2022-09-09T13:19:53.464Z,1.50
2022-09-09T13:22:38.839Z,1.60
2022-09-09T13:25:10.958Z,2.00
2022-09-09T13:27:56.911Z,1.55
2022-09-09T13:30:30.424Z,1.30
2022-09-09T13:33:13.937Z,1.60
2022-09-09T13:36:04.347Z,1.20
2022-09-09T13:38:55.811Z,1.20
2022-09-09T13:41:33.533Z,1.45
2022-09-09T13:44:07.515Z,1.50
2022-09-09T13:46:41.429Z,1.15
2022-09-09T13:49:12.717Z,1.52
2022-09-09T13:51:47.852Z,1.58
2022-09-09T13:54:21.122Z,1.17
2022-09-09T13:56:52.478Z,1.35
2022-09-09T13:59:30.713Z,1.10
2022-09-09T14:02:14.942Z,1.13
2022-09-09T14:04:46.378Z,1.55
2022-09-09T14:07:19.728Z,1.13
2022-09-09T14:09:52.691Z,1.63
2022-09-09T14:12:24.120Z,1.20
2022-09-09T14:14:55.391Z,1.10
2022-09-09T14:17:32.071Z,1.50
2022-09-09T14:20:08.860Z,1.13
2022-09-09T14:22:40.263Z,1.48
2022-09-09T14:25:14.315Z,1.30
2022-09-09T14:27:46.843Z,1.35
2022-09-09T14:30:18.265Z,1.55
2022-09-09T14:32:49.678Z,1.10
2022-09-09T14:35:21.021Z,1.17
2022-09-09T14:37:52.712Z,1.63
2022-09-09T14:40:24.035Z,1.23
2022-09-09T14:42:56.662Z,1.30
2022-09-09T14:45:28.048Z,1.10
2022-09-09T14:48:00.412Z,1.27
2022-09-09T14:50:31.898Z,1.05
2022-09-09T14:53:03.344Z,1.08
2022-09-09T14:55:34.806Z,1.15
2022-09-09T14:58:07.148Z,1.13
2022-09-09T15:00:38.417Z,1.38
2022-09-09T15:03:11.737Z,1.27
2022-09-09T15:05:43.016Z,1.20
2022-09-09T15:08:16.975Z,0.95
2022-09-09T15:10:48.334Z,1.63
2022-09-09T15:13:19.613Z,0.95
2022-09-09T15:15:51.160Z,0.95
2022-09-09T15:18:22.689Z,0.80
2022-09-09T15:20:54.194Z,0.80
2022-09-09T15:23:25.536Z,0.60
2022-09-09T15:25:57.444Z,0.70
2022-09-09T15:28:29.170Z,1.00
2022-09-09T15:31:07.779Z,0.90
2022-09-09T15:33:39.397Z,0.90
2022-09-09T15:36:19.622Z,0.73
2022-09-09T15:38:52.421Z,0.65
2022-09-09T15:41:24.547Z,0.85
2022-09-09T15:44:00.758Z,0.77
2022-09-09T15:46:38.162Z,0.85
2022-09-09T15:49:12.663Z,0.60
2022-09-09T15:51:52.388Z,0.80
2022-09-09T15:54:25.161Z,0.82
2022-09-09T15:56:59.868Z,0.90
2022-09-09T15:59:32.389Z,0.80
2022-09-09T16:02:04.055Z,1.10
2022-09-09T16:04:35.487Z,1.08
2022-09-09T16:07:07.226Z,1.20
2022-09-09T16:09:40.178Z,1.00
2022-09-09T16:12:13.082Z,0.90
2022-09-09T16:14:46.272Z,1.10
2022-09-09T16:17:17.629Z,1.42
2022-09-09T16:19:48.964Z,0.95
2022-09-09T16:22:20.551Z,1.10
2022-09-09T16:24:52.106Z,0.90
2022-09-09T16:27:24.171Z,1.10
2022-09-09T16:29:55.506Z,0.93
2022-09-09T16:32:27.074Z,1.05
2022-09-09T16:34:58.511Z,0.98
2022-09-09T16:37:30.435Z,1.10
2022-09-09T16:40:04.277Z,1.15
2022-09-09T16:42:39.418Z,1.20
2022-09-09T16:45:14.330Z,1.10
2022-09-09T16:47:45.655Z,1.35
2022-09-09T16:50:17.283Z,1.33
2022-09-09T16:52:48.729Z,1.40
2022-09-09T16:55:23.278Z,0.90
2022-09-09T16:57:54.916Z,1.00
2022-09-09T17:00:27.986Z,1.85
2022-09-09T17:02:59.849Z,1.20
2022-09-09T17:05:31.226Z,1.10
2022-09-09T17:08:02.570Z,1.58
2022-09-09T17:10:34.290Z,1.40
2022-09-09T17:13:05.670Z,1.40
2022-09-09T17:15:43.557Z,1.40
2022-09-09T17:18:14.933Z,1.38
2022-09-09T17:20:47.457Z,1.25
2022-09-09T17:23:18.886Z,1.50
2022-09-09T17:25:59.566Z,1.83
2022-09-09T17:28:32.149Z,2.55
2022-09-09T17:31:05.654Z,1.80
2022-09-09T17:33:42.593Z,2.10
2022-09-09T17:36:27.035Z,3.03
2022-09-09T17:39:00.639Z,3.93
2022-09-09T17:41:38.577Z,4.23
2022-09-09T17:44:10.692Z,4.07
2022-09-09T17:46:44.146Z,4.07
2022-09-09T17:49:18.343Z,5.33
2022-09-09T17:51:49.666Z,5.63
2022-09-09T17:54:21.416Z,4.90
2022-09-09T17:56:53.285Z,3.20
2022-09-09T17:59:26.011Z,3.87
2022-09-09T18:01:57.882Z,3.13
2022-09-09T18:04:29.476Z,2.83
2022-09-09T18:07:00.831Z,2.63
2022-09-09T18:09:32.528Z,3.07
2022-09-09T18:12:04.069Z,2.50
2022-09-09T18:14:35.462Z,2.90
2022-09-09T18:17:06.839Z,3.33
2022-09-09T18:19:38.180Z,2.50
2022-09-09T18:22:09.565Z,2.83
2022-09-09T18:24:41.410Z,2.60
2022-09-09T18:27:12.873Z,2.00
2022-09-09T18:29:44.534Z,2.53
2022-09-09T18:32:17.043Z,2.30
2022-09-09T18:34:51.571Z,2.63
2022-09-09T18:37:26.184Z,2.40
2022-09-09T18:39:57.572Z,1.97
2022-09-09T18:42:28.898Z,2.23
2022-09-09T18:45:00.636Z,2.70
2022-09-09T18:47:32.036Z,2.07
2022-09-09T18:50:04.493Z,1.80
2022-09-09T18:52:35.831Z,2.10
2022-09-09T18:55:09.010Z,2.27
2022-09-09T18:57:41.110Z,2.30
2022-09-09T19:00:12.820Z,2.20
2022-09-09T19:02:44.306Z,2.30
2022-09-09T19:05:15.679Z,2.47
2022-09-09T19:07:47.076Z,2.17
2022-09-09T19:10:19.334Z,2.43
2022-09-09T19:12:51.181Z,2.20
2022-09-09T19:15:23.011Z,2.40
2022-09-09T19:17:56.403Z,2.40
2022-09-09T19:20:27.854Z,2.70
2022-09-09T19:23:00.100Z,2.80
2022-09-09T19:25:37.387Z,2.63
2022-09-09T19:28:08.778Z,3.43
2022-09-09T19:30:40.258Z,2.43
2022-09-09T19:33:12.042Z,2.67
2022-09-09T19:35:43.418Z,2.43
2022-09-09T19:38:14.806Z,2.07
2022-09-09T19:40:46.145Z,2.83
2022-09-09T19:43:17.496Z,3.70
2022-09-09T19:46:06.565Z,2.60
2022-09-09T19:48:41.104Z,9.90
2022-09-09T19:51:17.701Z,7.23
2022-09-09T19:53:58.058Z,5.17
2022-09-09T19:56:31.076Z,6.03
2022-09-09T19:59:03.868Z,5.77
2022-09-09T20:01:41.566Z,3.67
2022-09-09T20:04:14.349Z,3.20
2022-09-09T20:06:46.421Z,2.90
2022-09-09T20:09:18.304Z,2.70
2022-09-09T20:11:50.310Z,3.07
2022-09-09T20:14:21.694Z,3.43
2022-09-09T20:16:53.102Z,2.70
2022-09-09T20:19:24.422Z,3.00
2022-09-09T20:21:56.014Z,2.50
2022-09-09T20:24:27.476Z,2.53
2022-09-09T20:26:58.883Z,3.23
2022-09-09T20:29:30.230Z,2.27
2022-09-09T20:32:01.753Z,2.10
2022-09-09T20:34:33.066Z,2.73
2022-09-09T20:37:05.810Z,2.53
2022-09-09T20:39:37.310Z,2.50
2022-09-09T20:42:08.683Z,3.13
2022-09-09T20:44:39.986Z,2.87
2022-09-09T20:47:11.419Z,2.77
2022-09-09T20:49:43.008Z,2.10
2022-09-09T20:52:15.161Z,2.37
2022-09-09T20:54:47.393Z,1.83
2022-09-09T20:57:21.994Z,2.10
2022-09-09T20:59:53.390Z,2.43
2022-09-09T21:02:24.860Z,2.00
2022-09-09T21:04:56.334Z,2.00
2022-09-09T21:07:29.137Z,1.70
2022-09-09T21:10:01.978Z,1.77
2022-09-09T21:12:33.313Z,1.40
2022-09-09T21:15:05.194Z,2.13
2022-09-09T21:17:36.674Z,1.60
2022-09-09T21:20:08.952Z,1.40
2022-09-09T21:22:40.621Z,1.37
2022-09-09T21:25:11.908Z,1.47
2022-09-09T21:27:43.180Z,1.70
2022-09-09T21:30:14.536Z,1.67
2022-09-09T21:32:45.906Z,1.50
2022-09-09T21:35:17.298Z,1.63
2022-09-09T21:37:49.719Z,1.33
2022-09-09T21:40:22.371Z,1.70
2022-09-09T21:42:53.633Z,1.30
2022-09-09T21:45:26.904Z,1.33
2022-09-09T21:47:58.247Z,1.20
2022-09-09T21:50:29.586Z,1.30
2022-09-09T21:53:00.896Z,1.20
2022-09-09T21:55:36.866Z,1.20
2022-09-09T21:58:11.982Z,1.35
2022-09-09T22:00:45.681Z,1.30
2022-09-09T22:03:17.483Z,1.10
2022-09-09T22:05:53.713Z,1.40
2022-09-09T22:08:25.339Z,1.50
2022-09-09T22:10:57.611Z,1.40
2022-09-09T22:13:29.942Z,1.60
2022-09-09T22:16:04.173Z,1.63
2022-09-09T22:18:35.966Z,1.50
2022-09-09T22:21:14.932Z,1.57
2022-09-09T22:23:52.415Z,1.53
2022-09-09T22:26:25.361Z,2.10
2022-09-09T22:28:57.301Z,1.73
2022-09-09T22:31:28.699Z,3.63
2022-09-09T22:34:00.198Z,3.40
2022-09-09T22:36:31.906Z,2.40
2022-09-09T22:39:03.830Z,2.50
2022-09-09T22:41:35.130Z,2.60
2022-09-09T22:44:09.150Z,1.97
2022-09-09T22:46:40.697Z,1.73
2022-09-09T22:49:12.466Z,2.20
2022-09-09T22:51:44.209Z,2.00
2022-09-09T22:54:21.440Z,1.80
2022-09-09T22:56:52.968Z,1.93
2022-09-09T22:59:24.335Z,1.77
2022-09-09T23:01:57.381Z,1.77
2022-09-09T23:04:29.023Z,2.10
2022-09-09T23:07:00.869Z,1.90
2022-09-09T23:09:32.305Z,1.80
2022-09-09T23:12:04.430Z,1.73
2022-09-09T23:14:35.800Z,1.80
2022-09-09T23:17:07.289Z,1.77
2022-09-09T23:19:39.978Z,1.80
2022-09-09T23:22:11.441Z,1.90
2022-09-09T23:24:42.974Z,1.53
2022-09-09T23:27:14.462Z,1.60
2022-09-09T23:29:48.244Z,1.80
2022-09-09T23:32:19.931Z,1.60
2022-09-09T23:34:51.658Z,1.80
2022-09-09T23:37:23.031Z,1.63
2022-09-09T23:39:54.376Z,1.40
2022-09-09T23:42:26.877Z,1.30
2022-09-09T23:44:58.249Z,1.50
2022-09-09T23:47:29.541Z,1.53
2022-09-09T23:50:01.561Z,1.60
2022-09-09T23:52:33.065Z,1.70
2022-09-09T23:55:05.566Z,1.90
2022-09-09T23:57:36.914Z,1.30
